METAR Data
IDs: Format: Raw Decoded Include TAF

Data at: 1445 UTC 21 Apr 2021

METAR for:KAIO (Atlantic Muni, IA, US)
Text:KAIO 211435Z AUTO 36011G17KT 330V030 10SM BKN026 BKN032 OVC044 01/M05 A3025 RMK AO2
Temperature: 1.0°C ( 34°F)
Dewpoint: -5.0°C ( 23°F) [RH = 64%]
Pressure (altimeter):30.25 inches Hg (1024.5 mb)
Winds:from the N (360 degrees) at 13 MPH (11 knots; 5.7 m/s) gusting to 20 MPH (17 knots; 8.7 m/s)
Visibility:10 or more sm (16+ km)
Ceiling:2600 feet AGL
Clouds: broken clouds at 2600 feet AGL, broken clouds at 3200 feet AGL, overcast cloud deck at 4400 feet AGL
QC Flag:automated observation with no human augmentation